Sabahat Telli — TCSQ6 — position and weather

sailwx.info

Track history (hours):
 
Tides and Currents Weather Stations Pressure Air Temp Water Temp Dewpoint Dewpoint Depression Visibility Wind Speed Wind Dir Waves Ship Positions

Sabahat Telli

Last reported at 2017-Jan-19 16:21 UTC. Time now 2017-Jan-21 10:42 UTC.
Position N 37°55' E 023°01'.

Length 99 m; draft 4.8 m.

Type: Tanker. MMSI: 271000961.

Date/timePositionNaut miles runAvg speedWind from/ knotsBaromVisibWave heightAir tempDewpointWater temp
2017-Jan-19 16:21N 37°55' E 023°01'4 4.5
2017-Jan-19 15:33N 37°53' E 023°05'1312.7
2017-Jan-19 14:33N 37°51' E 023°20'1312.8
2017-Jan-19 13:33N 37°51' E 023°37'1211.9
2017-Jan-19 12:33N 37°41' E 023°46'1312.6
2017-Jan-19 11:32N 37°37' E 024°01'1211.6
2017-Jan-19 10:31N 37°45' E 024°11'1313.3
2017-Jan-19 09:33N 37°58' E 024°08'1313.0
2017-Jan-19 08:33N 38°11' E 024°07'1613.0
2017-Jan-19 07:20N 38°21' E 023°51'5 0.2
2017-Jan-18 05:14N 38°22' E 023°45'5 6.5
2017-Jan-18 04:29N 38°21' E 023°51'17 8.7
2017-Jan-18 02:33N 38°11' E 024°08'1110.8
2017-Jan-18 01:33N 38°00' E 024°10'  
Track history (hours):
 
Tides and Currents Weather Stations Pressure Air Temp Water Temp Dewpoint Dewpoint Depression Visibility Wind Speed Wind Dir Waves Ship Positions

Sabahat Telli

Last reported at 2017-Jan-19 16:21 UTC. Time now 2017-Jan-21 10:42 UTC.
Position N 37°55' E 023°01'.

Length 99 m; draft 4.8 m.

Type: Tanker. MMSI: 271000961.

Date/timePositionNaut miles runAvg speedWind from/ knotsBaromVisibWave heightAir tempDewpointWater temp
2017-Jan-19 16:21N 37°55' E 023°01'4 4.5
2017-Jan-19 15:33N 37°53' E 023°05'1312.7
2017-Jan-19 14:33N 37°51' E 023°20'1312.8
2017-Jan-19 13:33N 37°51' E 023°37'1211.9
2017-Jan-19 12:33N 37°41' E 023°46'1312.6
2017-Jan-19 11:32N 37°37' E 024°01'1211.6
2017-Jan-19 10:31N 37°45' E 024°11'1313.3
2017-Jan-19 09:33N 37°58' E 024°08'1313.0
2017-Jan-19 08:33N 38°11' E 024°07'1613.0
2017-Jan-19 07:20N 38°21' E 023°51'5 0.2
2017-Jan-18 05:14N 38°22' E 023°45'5 6.5
2017-Jan-18 04:29N 38°21' E 023°51'17 8.7
2017-Jan-18 02:33N 38°11' E 024°08'1110.8
2017-Jan-18 01:33N 38°00' E 024°10'  

Dump ship's entire track history